Time;durP1;ratioP1;P1;durP2;ratioP2;P2;SDS_P1;SDS_P2;PMS_P1;PMS_P2;Temp;Humidity;BMP_temperature;BMP_pressure;BME280_temperature;BME280_humidity;BME280_pressure;Samples;Min_cycle;Max_cycle;Signal;HPM_P1;HPM_P2
2022/04/02 01:14:17;;;;;;;2.95;2.40;;;2.80;99.90;;;;;;5035828;27;2383660;-83
2022/04/02 01:16:46;;;;;;;5.17;2.80;;;2.50;99.90;;;;;;5109493;28;20632;-84
2022/04/02 01:19:13;;;;;;;5.20;2.70;;;2.50;99.90;;;;;;5071934;28;20219;-83
2022/04/02 01:21:50;;;;;;;4.40;2.63;;;2.50;99.90;;;;;;5073839;28;20228;-83
2022/04/02 01:24:18;;;;;;;4.67;3.27;;;2.50;99.90;;;;;;5059757;28;20203;-82
2022/04/02 01:26:45;;;;;;;6.83;3.70;;;2.30;99.90;;;;;;5081226;28;20212;-83
2022/04/02 01:29:12;;;;;;;6.07;2.77;;;2.40;99.90;;;;;;5060757;28;20200;-84
2022/04/02 01:31:43;;;;;;;4.00;2.50;;;2.40;99.90;;;;;;5067514;28;20209;-83
2022/04/02 01:34:11;;;;;;;5.00;3.00;;;2.70;99.90;;;;;;5056524;28;20289;-83
2022/04/02 01:36:38;;;;;;;4.17;3.00;;;2.40;99.90;;;;;;5082713;28;20209;-83
2022/04/02 01:39:05;;;;;;;5.07;2.60;;;2.40;99.90;;;;;;5089887;28;20228;-83
2022/04/02 01:41:32;;;;;;;5.90;2.70;;;2.30;99.90;;;;;;5097023;28;20993;-84
2022/04/02 01:43:59;;;;;;;6.07;2.40;;;2.30;99.90;;;;;;5064399;28;20208;-84
2022/04/02 01:46:26;;;;;;;2.87;2.40;;;2.30;99.90;;;;;;5092167;28;20203;-83
2022/04/02 01:48:53;;;;;;;4.23;2.90;;;2.30;99.90;;;;;;5097528;28;20203;-82
2022/04/02 01:51:20;;;;;;;4.27;2.40;;;2.40;99.90;;;;;;5085144;28;20212;-84
2022/04/02 01:53:47;;;;;;;4.13;3.00;;;2.30;99.90;;;;;;5056710;28;20323;-84
2022/04/02 01:56:14;;;;;;;3.67;2.80;;;2.20;99.90;;;;;;5059309;28;20735;-84
2022/04/02 01:58:42;;;;;;;6.17;2.67;;;2.20;99.90;;;;;;5079502;28;20222;-82
2022/04/02 02:01:10;;;;;;;6.83;2.73;;;2.30;99.90;;;;;;5053604;28;20278;-82
2022/04/02 02:03:37;;;;;;;5.97;2.97;;;2.30;99.90;;;;;;5059804;28;20201;-84
2022/04/02 02:06:07;;;;;;;5.50;3.00;;;2.20;99.90;;;;;;5060122;28;20390;-82
2022/04/02 02:08:34;;;;;;;4.90;2.80;;;2.20;99.90;;;;;;5066468;28;20243;-82
2022/04/02 02:11:01;;;;;;;2.87;2.17;;;2.20;99.90;;;;;;5077303;28;20255;-83
2022/04/02 02:13:29;;;;;;;6.57;2.47;;;2.20;99.90;;;;;;5062826;28;20237;-83
2022/04/02 02:15:56;;;;;;;6.77;2.70;;;2.20;99.90;;;;;;5050187;28;20308;-83
2022/04/02 02:18:25;;;;;;;5.73;3.13;;;2.20;99.90;;;;;;5057079;28;20213;-83
2022/04/02 02:20:53;;;;;;;6.33;2.93;;;2.10;99.90;;;;;;5053855;28;20232;-83
2022/04/02 02:23:22;;;;;;;3.37;2.77;;;2.10;99.90;;;;;;5059477;28;20259;-84
2022/04/02 02:25:49;;;;;;;3.60;2.57;;;2.10;99.90;;;;;;5049436;28;20205;-83
2022/04/02 02:28:18;;;;;;;6.97;3.03;;;2.40;99.90;;;;;;5041207;28;20215;-83
2022/04/02 02:30:45;;;;;;;3.83;2.70;;;2.10;99.90;;;;;;5032902;28;20646;-83
2022/04/02 02:36:00;;;;;;;5.03;2.90;;;2.10;99.90;;;;;;5041882;28;20212;-82
2022/04/02 02:38:27;;;;;;;7.57;2.97;;;2.10;99.90;;;;;;5043223;28;20235;-83
2022/04/02 02:40:54;;;;;;;4.93;2.80;;;2.10;99.90;;;;;;5042966;28;20252;-83
2022/04/02 02:43:22;;;;;;;3.30;2.67;;;2.10;99.90;;;;;;5045672;28;20235;-83
2022/04/02 02:45:50;;;;;;;3.50;2.77;;;2.10;99.90;;;;;;5035475;28;20209;-83
2022/04/02 02:48:18;;;;;;;4.67;2.67;;;2.10;99.90;;;;;;5044684;28;20201;-83
2022/04/02 02:50:48;;;;;;;6.00;2.73;;;2.10;99.90;;;;;;5055968;28;20697;-84
2022/04/02 02:53:15;;;;;;;4.90;3.03;;;2.10;99.90;;;;;;5063179;28;20261;-82
2022/04/02 02:55:44;;;;;;;4.97;2.50;;;2.10;99.90;;;;;;5056194;28;20190;-83
2022/04/02 02:58:13;;;;;;;3.10;2.30;;;2.00;99.90;;;;;;5050372;28;20213;-83
2022/04/02 03:00:43;;;;;;;6.40;2.20;;;2.20;99.90;;;;;;5046118;28;20759;-83
2022/04/02 03:03:10;;;;;;;4.27;2.97;;;2.00;99.90;;;;;;5041368;28;20209;-84
2022/04/02 03:05:38;;;;;;;6.10;3.20;;;2.00;99.90;;;;;;5042830;28;20201;-83
2022/04/02 03:08:05;;;;;;;3.67;2.57;;;2.00;99.90;;;;;;5041367;28;20626;-85
2022/04/02 03:10:34;;;;;;;6.07;3.07;;;2.00;99.90;;;;;;5046288;28;20216;-82
2022/04/02 03:13:01;;;;;;;4.40;2.90;;;2.00;99.90;;;;;;5030844;28;20261;-84
2022/04/02 03:15:28;;;;;;;5.53;3.23;;;2.00;99.90;;;;;;5037075;28;20225;-84
2022/04/02 03:18:03;;;;;;;6.73;2.80;;;2.20;99.90;;;;;;5040410;28;20208;-84
2022/04/02 03:20:30;;;;;;;4.10;2.87;;;1.90;99.90;;;;;;5041648;28;20285;-83
2022/04/02 03:23:00;;;;;;;5.17;2.63;;;1.90;99.90;;;;;;5035451;28;20283;-83
2022/04/02 03:25:27;;;;;;;6.40;2.73;;;1.90;99.90;;;;;;5047294;28;20293;-83
2022/04/02 03:27:54;;;;;;;6.80;2.77;;;1.80;99.90;;;;;;5042085;28;20647;-83
2022/04/02 03:30:23;;;;;;;3.67;2.63;;;1.70;99.90;;;;;;5048166;28;20590;-82
2022/04/02 03:32:51;;;;;;;6.27;3.00;;;1.80;99.90;;;;;;5040208;28;20662;-83
2022/04/02 03:35:19;;;;;;;5.80;2.60;;;1.70;99.90;;;;;;5041350;28;20217;-83
2022/04/02 03:37:54;;;;;;;8.17;3.07;;;1.90;99.90;;;;;;5039467;28;20624;-84
2022/04/02 03:40:23;;;;;;;6.43;3.27;;;1.70;99.90;;;;;;5039562;28;20593;-84
2022/04/02 03:42:50;;;;;;;4.03;2.60;;;1.60;99.90;;;;;;5039853;28;20537;-82
2022/04/02 03:45:22;;;;;;;5.10;2.90;;;1.60;99.90;;;;;;5035597;28;20233;-83
2022/04/02 03:47:49;;;;;;;4.43;2.90;;;1.60;99.90;;;;;;5049271;28;20211;-81
2022/04/02 03:50:16;;;;;;;5.90;3.00;;;1.60;99.90;;;;;;5036478;28;20211;-84
2022/04/02 03:52:44;;;;;;;5.20;2.90;;;1.80;99.90;;;;;;5042805;28;20770;-84
2022/04/02 03:55:11;;;;;;;7.10;3.00;;;1.50;99.90;;;;;;5044914;28;20225;-83
2022/04/02 03:57:39;;;;;;;4.37;2.90;;;1.50;99.90;;;;;;5046318;28;20197;-82
2022/04/02 04:00:08;;;;;;;4.97;2.97;;;1.50;99.90;;;;;;5047956;28;20303;-84
2022/04/02 04:02:37;;;;;;;4.90;2.60;;;1.50;99.90;;;;;;5044743;28;20277;-83
2022/04/02 04:05:08;;;;;;;4.03;3.00;;;1.50;99.90;;;;;;5041712;28;20205;-83
2022/04/02 04:07:36;;;;;;;5.63;2.83;;;1.40;99.90;;;;;;5043748;28;20242;-83
2022/04/02 04:10:04;;;;;;;6.57;3.30;;;1.40;99.90;;;;;;5033905;28;20286;-82
2022/04/02 04:12:32;;;;;;;4.77;3.00;;;1.40;99.90;;;;;;5051553;28;20239;-82
2022/04/02 04:14:59;;;;;;;4.50;3.03;;;1.40;99.90;;;;;;5047321;28;20230;-84
2022/04/02 04:17:26;;;;;;;5.43;3.20;;;1.30;99.90;;;;;;5060485;28;20253;-83
2022/04/02 04:19:53;;;;;;;5.53;3.03;;;1.30;99.90;;;;;;5062652;28;20351;-84
2022/04/02 04:22:21;;;;;;;5.57;3.00;;;1.40;99.90;;;;;;5047854;28;20599;-84
2022/04/02 04:24:48;;;;;;;7.63;3.60;;;1.00;99.90;;;;;;5061305;28;20210;-83
2022/04/02 04:27:15;;;;;;;4.87;3.20;;;1.20;99.90;;;;;;5055955;28;20210;-83
2022/04/02 04:29:42;;;;;;;5.40;3.27;;;1.10;99.90;;;;;;5043951;28;20206;-83
2022/04/02 04:32:12;;;;;;;5.37;3.37;;;1.20;99.90;;;;;;5065056;28;20266;-84
2022/04/02 04:34:39;;;;;;;4.73;3.03;;;1.20;99.90;;;;;;5047507;28;20230;-84
2022/04/02 04:37:07;;;;;;;6.00;3.27;;;1.30;99.90;;;;;;5049581;28;20662;-83
2022/04/02 04:39:37;;;;;;;7.47;3.53;;;1.20;99.90;;;;;;5040566;28;20207;-85
2022/04/02 04:42:05;;;;;;;5.30;3.43;;;1.20;99.90;;;;;;5068879;28;20237;-83
2022/04/02 04:44:32;;;;;;;4.47;3.27;;;1.10;99.90;;;;;;5043575;28;20200;-86
2022/04/02 04:46:59;;;;;;;7.50;3.40;;;1.20;99.90;;;;;;5062589;28;20607;-84
2022/04/02 04:49:26;;;;;;;7.07;3.30;;;1.10;99.90;;;;;;5062396;28;20293;-83
2022/04/02 04:51:53;;;;;;;7.70;3.80;;;1.10;99.90;;;;;;5057122;28;20214;-84
2022/04/02 04:54:21;;;;;;;5.73;3.53;;;1.10;99.90;;;;;;5057899;28;20605;-84
2022/04/02 04:56:48;;;;;;;4.53;2.70;;;1.10;99.90;;;;;;5050956;28;20671;-84
2022/04/02 04:59:15;;;;;;;5.80;3.30;;;1.10;99.90;;;;;;5058370;28;20293;-85
2022/04/02 05:01:42;;;;;;;5.37;3.30;;;1.10;99.90;;;;;;5038392;28;20278;-84
2022/04/02 05:04:13;;;;;;;9.53;3.13;;;1.10;99.90;;;;;;5048789;28;20249;-84
2022/04/02 05:06:41;;;;;;;5.90;3.20;;;1.10;99.90;;;;;;5045221;28;20244;-83
2022/04/02 05:09:08;;;;;;;6.50;3.17;;;1.10;99.90;;;;;;5042293;28;20218;-82
2022/04/02 05:11:38;;;;;;;5.13;3.40;;;1.10;99.90;;;;;;5067531;28;20271;-83
2022/04/02 05:14:05;;;;;;;6.90;3.27;;;1.00;99.90;;;;;;5061851;28;20254;-83
2022/04/02 05:16:32;;;;;;;5.70;2.87;;;1.00;99.90;;;;;;5041505;28;20251;-85
2022/04/02 05:18:59;;;;;;;3.83;3.07;;;1.00;99.90;;;;;;5048158;28;20686;-83
2022/04/02 05:21:26;;;;;;;7.33;4.00;;;1.20;99.90;;;;;;5043998;28;20277;-83
2022/04/02 05:23:53;;;;;;;5.23;3.60;;;1.10;99.90;;;;;;5056603;28;20206;-86
2022/04/02 05:26:20;;;;;;;7.23;3.30;;;1.00;99.90;;;;;;5049549;28;20283;-84
2022/04/02 05:28:52;;;;;;;7.10;3.53;;;1.00;99.90;;;;;;5042710;28;20246;-85
2022/04/02 05:31:19;;;;;;;5.70;3.23;;;0.90;99.90;;;;;;5047763;28;20215;-85
2022/04/02 05:33:48;;;;;;;5.90;3.70;;;1.00;99.90;;;;;;5030998;28;20223;-86
2022/04/02 05:36:16;;;;;;;6.27;2.97;;;1.20;99.90;;;;;;5052477;28;20226;-88
2022/04/02 05:39:14;;;;;;;6.33;3.50;;;1.00;99.90;;;;;;5055238;28;20238;-90
2022/04/02 05:41:51;;;;;;;5.80;3.30;;;1.00;99.90;;;;;;5056125;28;20234;-91
2022/04/02 05:44:18;;;;;;;7.47;3.23;;;1.00;99.90;;;;;;5040634;28;20266;-91
2022/04/02 05:46:48;;;;;;;5.97;3.40;;;1.00;99.90;;;;;;5040983;28;20697;-90
2022/04/02 05:49:37;;;;;;;5.60;3.67;;;1.00;99.90;;;;;;5052707;28;20503;-91
2022/04/02 05:52:14;;;;;;;6.07;3.83;;;1.00;99.90;;;;;;5038700;28;20234;-89
2022/04/02 05:55:04;;;;;;;6.30;3.80;;;1.10;99.90;;;;;;5049378;28;20675;-89
2022/04/02 05:57:31;;;;;;;5.53;3.10;;;1.10;99.90;;;;;;5052660;28;20262;-88
2022/04/02 06:00:06;;;;;;;5.53;3.37;;;1.30;99.90;;;;;;5047909;28;20210;-89
2022/04/02 06:02:34;;;;;;;7.27;3.90;;;1.20;99.90;;;;;;5043239;28;20226;-89
2022/04/02 06:12:51;;;;;;;5.97;3.30;;;1.40;99.90;;;;;;5008264;28;20287;-93
2022/04/02 06:16:16;;;;;;;;;;;;;;;;;;;;;
2022/04/02 06:19:21;;;;;;;;;;;;;;;;;;;;;
2022/04/02 06:22:07;;;;;;;7.70;3.87;;;1.50;99.90;;;;;;4965505;29;20228;-93
2022/04/02 06:26:00;;;;;;;;;;;;;;;;;;;;;
2022/04/02 06:29:09;;;;;;;11.47;3.93;;;1.60;99.90;;;;;;5005365;28;20311;-93
2022/04/02 06:31:59;;;;;;;7.30;3.23;;;1.60;99.90;;;;;;4992214;28;20224;-94
2022/04/02 06:37:05;;;;;;;8.57;3.80;;;1.80;99.90;;;;;;5094031;22;20562;-86
2022/04/02 06:39:32;;;;;;;5.87;3.17;;;1.80;99.90;;;;;;5053016;28;20213;-88
2022/04/02 06:41:59;;;;;;;6.63;3.53;;;1.90;99.90;;;;;;5067477;28;20636;-86
2022/04/02 06:44:29;;;;;;;7.90;3.80;;;1.90;99.90;;;;;;5053731;28;20305;-87
2022/04/02 06:46:59;;;;;;;6.57;3.67;;;2.00;99.90;;;;;;5051863;28;20193;-86
2022/04/02 06:49:29;;;;;;;6.17;3.70;;;2.10;99.90;;;;;;5050572;28;20211;-86
2022/04/02 06:51:57;;;;;;;9.63;3.63;;;2.10;99.90;;;;;;5053390;28;20239;-81
2022/04/02 06:54:27;;;;;;;4.03;2.90;;;2.20;99.90;;;;;;5068307;28;20683;-86
2022/04/02 06:56:55;;;;;;;6.47;3.47;;;2.40;99.90;;;;;;5055825;28;20388;-84
2022/04/02 06:59:22;;;;;;;4.73;3.07;;;2.50;99.90;;;;;;5054547;28;20236;-84
2022/04/02 07:01:49;;;;;;;6.47;3.60;;;2.80;99.90;;;;;;5054039;28;20308;-82
2022/04/02 07:04:16;;;;;;;6.77;3.33;;;3.10;99.90;;;;;;5072136;28;20210;-84
2022/04/02 07:06:45;;;;;;;8.27;3.40;;;3.30;99.90;;;;;;5070949;28;20211;-85
2022/04/02 07:09:14;;;;;;;7.23;3.67;;;3.50;99.90;;;;;;5046570;28;20208;-85
2022/04/02 07:11:42;;;;;;;5.07;3.27;;;3.90;99.90;;;;;;5039117;28;20247;-85
2022/04/02 07:14:09;;;;;;;6.23;3.27;;;4.20;99.90;;;;;;5060922;28;20327;-85
2022/04/02 07:16:37;;;;;;;5.97;3.53;;;4.70;99.90;;;;;;5063893;28;20290;-84
2022/04/02 07:19:08;;;;;;;5.60;3.23;;;5.20;99.90;;;;;;5050651;28;20203;-84
2022/04/02 07:21:36;;;;;;;10.30;3.87;;;5.70;99.90;;;;;;5055169;28;20216;-84
2022/04/02 07:24:07;;;;;;;5.70;2.63;;;6.10;99.90;;;;;;5055953;28;20204;-86
2022/04/02 07:26:33;;;;;;;6.37;3.10;;;6.60;99.90;;;;;;5052744;28;20256;-85
2022/04/02 07:29:08;;;;;;;5.83;2.90;;;7.00;99.90;;;;;;5046040;28;20207;-85
2022/04/02 07:31:35;;;;;;;8.50;3.27;;;7.40;99.90;;;;;;5053581;28;20215;-85
2022/04/02 07:34:04;;;;;;;3.67;2.70;;;7.50;99.90;;;;;;5067936;28;20221;-85
2022/04/02 07:36:44;;;;;;;5.67;3.80;;;7.80;99.90;;;;;;5049778;28;20813;-85
2022/04/02 07:39:17;;;;;;;4.63;3.03;;;8.00;99.90;;;;;;5044483;28;20208;-85
2022/04/02 07:42:23;;;;;;;4.20;3.10;;;8.10;99.90;;;;;;5052214;28;20615;-84
2022/04/02 07:44:52;;;;;;;3.83;2.70;;;8.20;99.90;;;;;;5055013;28;20530;-86
2022/04/02 07:47:27;;;;;;;5.47;3.27;;;8.40;99.90;;;;;;5049226;28;20259;-80
2022/04/02 07:50:01;;;;;;;5.90;3.13;;;8.40;99.90;;;;;;5064162;28;20690;-85
2022/04/02 07:52:28;;;;;;;4.93;2.87;;;8.80;99.90;;;;;;5068901;28;20219;-86
2022/04/02 07:55:04;;;;;;;7.77;3.27;;;9.10;99.90;;;;;;5046097;28;20703;-86
2022/04/02 07:57:52;;;;;;;6.80;3.50;;;9.40;99.90;;;;;;5045020;28;20561;-86
2022/04/02 08:00:21;;;;;;;8.17;3.43;;;9.50;99.90;;;;;;5047538;28;20680;-85
2022/04/02 08:02:50;;;;;;;6.47;3.60;;;9.50;99.90;;;;;;5051580;28;20195;-87
2022/04/02 08:05:21;;;;;;;5.53;3.23;;;9.40;99.90;;;;;;5051065;28;20204;-88
2022/04/02 08:07:50;;;;;;;8.20;3.80;;;9.60;99.90;;;;;;5047278;28;20266;-87
2022/04/02 08:10:20;;;;;;;7.87;3.90;;;9.70;99.90;;;;;;5051822;28;20230;-86
2022/04/02 08:12:48;;;;;;;5.30;3.20;;;9.80;99.90;;;;;;5070101;28;20596;-85
2022/04/02 08:15:19;;;;;;;6.80;3.30;;;9.60;99.90;;;;;;5052082;28;20700;-83
2022/04/02 08:17:52;;;;;;;4.27;3.20;;;9.40;99.90;;;;;;5048427;28;20645;-84
2022/04/02 08:20:19;;;;;;;3.73;3.17;;;8.90;99.90;;;;;;5067874;28;20285;-84
2022/04/02 08:22:46;;;;;;;5.57;3.47;;;8.50;99.90;;;;;;5065070;28;20219;-86
2022/04/02 08:25:15;;;;;;;6.17;3.47;;;8.50;99.90;;;;;;5063444;28;20215;-86
2022/04/02 08:28:15;;;;;;;5.83;3.47;;;8.40;99.90;;;;;;5063683;28;20591;-85
2022/04/02 08:30:48;;;;;;;6.53;3.57;;;8.60;99.90;;;;;;5050549;28;20291;-87
2022/04/02 08:33:51;;;;;;;6.30;3.80;;;8.70;99.90;;;;;;5065162;28;20204;-86
2022/04/02 08:36:23;;;;;;;9.23;3.23;;;8.80;99.90;;;;;;5062355;28;20214;-87
2022/04/02 08:38:54;;;;;;;6.33;3.70;;;9.00;99.90;;;;;;5084227;28;20216;-86
2022/04/02 08:41:39;;;;;;;4.83;3.50;;;9.10;99.90;;;;;;5065873;28;20310;-89
2022/04/02 08:44:44;;;;;;;6.43;3.70;;;9.10;99.90;;;;;;5066316;28;20268;-87
2022/04/02 08:47:24;;;;;;;5.70;3.50;;;9.20;99.90;;;;;;5056495;28;20206;-86
2022/04/02 08:50:08;;;;;;;5.87;3.00;;;9.20;99.90;;;;;;5059546;28;20219;-88
2022/04/02 08:52:53;;;;;;;5.20;3.37;;;9.20;99.90;;;;;;5064280;28;20214;-89
2022/04/02 08:55:24;;;;;;;5.47;3.77;;;9.10;99.90;;;;;;5050540;28;20250;-87
2022/04/02 08:58:02;;;;;;;4.60;3.40;;;9.00;99.90;;;;;;5053228;28;20211;-89
2022/04/02 09:00:37;;;;;;;5.57;3.07;;;9.00;99.90;;;;;;5050445;28;20245;-88
2022/04/02 09:03:41;;;;;;;5.63;3.30;;;9.10;99.90;;;;;;5045898;28;20208;-88
2022/04/02 09:06:17;;;;;;;6.23;3.53;;;9.20;99.90;;;;;;5049627;28;20205;-87
2022/04/02 09:08:50;;;;;;;6.17;3.43;;;9.00;99.90;;;;;;5053162;28;20633;-86
2022/04/02 09:11:32;;;;;;;7.60;3.57;;;9.00;99.90;;;;;;5050198;28;20200;-86
2022/04/02 09:14:18;;;;;;;6.73;2.93;;;9.10;99.90;;;;;;5050603;28;20214;-89
2022/04/02 09:17:03;;;;;;;7.97;3.10;;;9.10;99.90;;;;;;5055474;28;20205;-88
2022/04/02 09:19:55;;;;;;;9.80;3.20;;;9.20;99.90;;;;;;5071486;28;20205;-88
2022/04/02 09:22:31;;;;;;;5.27;2.93;;;9.40;99.90;;;;;;5051386;28;20243;-92
2022/04/02 09:25:26;;;;;;;4.43;2.73;;;9.40;99.90;;;;;;5047472;28;20612;-90
2022/04/02 09:28:10;;;;;;;4.00;2.53;;;9.40;99.90;;;;;;5055369;28;20555;-91
2022/04/02 09:31:13;;;;;;;6.27;2.70;;;9.60;99.90;;;;;;5049820;28;20225;-91
2022/04/02 09:34:22;;;;;;;6.43;3.00;;;9.80;99.90;;;;;;5049674;28;20294;-90
2022/04/02 09:37:20;;;;;;;4.97;2.97;;;10.00;99.90;;;;;;5046143;28;20255;-89
2022/04/02 09:40:05;;;;;;;4.83;3.07;;;9.60;99.90;;;;;;5054803;28;20213;-91
2022/04/02 09:42:46;;;;;;;4.57;2.70;;;9.50;99.90;;;;;;5062382;28;20211;-90
2022/04/02 09:45:27;;;;;;;5.13;2.40;;;9.70;99.90;;;;;;5053011;28;20208;-90
2022/04/02 09:48:08;;;;;;;6.17;2.77;;;9.80;99.90;;;;;;5054103;28;20206;-91
2022/04/02 09:50:36;;;;;;;3.77;2.50;;;9.80;99.90;;;;;;5045528;28;20214;-92
2022/04/02 09:53:14;;;;;;;3.07;2.63;;;9.80;99.90;;;;;;5072064;28;20226;-92
2022/04/02 09:56:12;;;;;;;5.07;2.60;;;9.70;99.90;;;;;;5058470;28;20599;-90
2022/04/02 09:59:00;;;;;;;2.90;2.23;;;9.50;99.90;;;;;;5057261;28;20203;-91
2022/04/02 10:01:31;;;;;;;3.53;2.47;;;9.60;99.90;;;;;;5059054;28;20215;-90
2022/04/02 10:04:05;;;;;;;4.60;2.50;;;9.60;99.90;;;;;;5077306;28;20211;-90
2022/04/02 10:06:44;;;;;;;4.03;3.03;;;9.50;99.90;;;;;;5068093;28;20234;-91
2022/04/02 10:09:13;;;;;;;5.50;2.57;;;9.20;99.90;;;;;;5078633;28;20209;-89
2022/04/02 10:11:51;;;;;;;3.23;2.37;;;8.90;99.90;;;;;;5077867;28;20206;-89
2022/04/02 10:14:24;;;;;;;4.90;2.30;;;8.80;99.90;;;;;;5060499;28;20690;-89
2022/04/02 10:16:57;;;;;;;2.23;1.87;;;8.90;99.90;;;;;;5073022;28;20210;-90
2022/04/02 10:19:40;;;;;;;5.07;2.40;;;9.00;99.90;;;;;;5060080;28;20201;-90
2022/04/02 10:22:12;;;;;;;4.17;2.20;;;9.10;99.90;;;;;;5058990;28;20650;-90
2022/04/02 10:24:47;;;;;;;2.60;2.30;;;9.30;99.90;;;;;;5058109;28;20210;-91
2022/04/02 10:27:34;;;;;;;4.90;2.60;;;9.50;99.90;;;;;;5070992;28;20298;-90
2022/04/02 10:30:00;;;;;;;3.07;2.10;;;9.70;99.90;;;;;;5043089;28;20788;-91
2022/04/02 10:32:53;;;;;;;4.63;1.90;;;9.60;99.90;;;;;;5057537;28;20203;-89
2022/04/02 10:35:23;;;;;;;2.47;1.90;;;9.30;99.90;;;;;;5068605;28;20271;-90
2022/04/02 10:38:07;;;;;;;2.57;1.90;;;9.00;99.90;;;;;;5057724;28;20240;-90
2022/04/02 10:40:45;;;;;;;2.83;1.97;;;8.90;99.90;;;;;;5070765;28;20212;-91
2022/04/02 10:43:34;;;;;;;1.87;1.57;;;9.10;99.90;;;;;;5053929;28;20205;-92
2022/04/02 10:46:03;;;;;;;2.60;1.63;;;9.30;98.80;;;;;;5061086;28;20211;-92
2022/04/02 10:48:45;;;;;;;3.03;2.07;;;9.40;98.60;;;;;;5072936;28;20692;-93
2022/04/02 10:51:13;;;;;;;4.63;2.50;;;9.60;98.70;;;;;;5061130;28;20210;-90
2022/04/02 10:53:44;;;;;;;4.83;2.37;;;9.60;99.90;;;;;;5062138;28;20381;-92
2022/04/02 10:56:28;;;;;;;6.00;2.47;;;9.50;99.90;;;;;;5067504;28;20233;-91
2022/04/02 10:58:58;;;;;;;4.33;2.30;;;9.10;99.90;;;;;;5059699;28;20204;-93
2022/04/02 11:01:27;;;;;;;3.17;2.20;;;8.80;99.90;;;;;;5067929;28;20208;-91
2022/04/02 11:04:03;;;;;;;4.30;2.50;;;8.40;99.90;;;;;;5073392;28;20227;-87
2022/04/02 11:06:50;;;;;;;5.83;2.33;;;8.10;99.90;;;;;;5068080;28;20224;-88
2022/04/02 11:09:27;;;;;;;6.87;2.50;;;7.70;99.90;;;;;;5057748;28;20196;-91
2022/04/02 11:12:03;;;;;;;3.37;2.50;;;7.60;99.90;;;;;;5058674;28;20211;-90
2022/04/02 11:14:37;;;;;;;4.70;2.80;;;7.60;99.90;;;;;;5059655;28;20212;-89
2022/04/02 11:17:05;;;;;;;5.20;2.47;;;7.70;99.90;;;;;;5062462;28;20208;-89
2022/04/02 11:19:56;;;;;;;5.80;2.60;;;7.70;99.90;;;;;;5068101;28;20296;-89
2022/04/02 11:22:34;;;;;;;2.73;2.20;;;7.80;99.90;;;;;;5069228;28;20227;-91
2022/04/02 11:25:07;;;;;;;5.13;2.67;;;7.70;99.90;;;;;;5074800;28;20242;-89
2022/04/02 11:27:40;;;;;;;3.33;2.43;;;7.80;99.90;;;;;;5057767;28;20203;-89
2022/04/02 11:30:11;;;;;;;3.93;2.43;;;8.00;99.90;;;;;;5057702;28;20220;-88
2022/04/02 11:32:43;;;;;;;5.07;2.27;;;8.30;99.90;;;;;;5057749;28;20201;-89
2022/04/02 11:35:16;;;;;;;3.67;2.37;;;8.30;99.90;;;;;;5067613;28;20357;-93
2022/04/02 11:38:21;;;;;;;6.23;2.50;;;8.20;99.90;;;;;;5046398;28;20241;-91
2022/04/02 11:41:27;;;;;;;2.97;2.30;;;8.30;99.90;;;;;;5033649;28;20536;-90
2022/04/02 11:44:12;;;;;;;2.47;1.93;;;8.40;99.90;;;;;;5031761;28;20247;-88
2022/04/02 11:46:59;;;;;;;4.20;2.10;;;8.20;99.90;;;;;;5032840;28;20205;-89
2022/04/02 11:49:40;;;;;;;5.23;2.30;;;8.10;99.90;;;;;;5033056;28;20217;-88
2022/04/02 11:52:15;;;;;;;2.73;1.83;;;8.10;99.90;;;;;;5048811;28;20666;-89
2022/04/02 11:54:48;;;;;;;4.00;1.87;;;8.10;99.90;;;;;;5030806;28;20264;-88
2022/04/02 11:57:20;;;;;;;2.27;1.87;;;8.00;99.90;;;;;;5030044;28;20218;-87
2022/04/02 11:59:52;;;;;;;3.37;2.00;;;8.00;99.90;;;;;;5030889;28;20202;-88
2022/04/02 12:02:36;;;;;;;2.50;1.90;;;7.90;99.90;;;;;;5049234;28;20203;-88
2022/04/02 12:05:07;;;;;;;4.20;3.10;;;7.80;99.90;;;;;;5050888;28;20681;-89
2022/04/02 12:07:42;;;;;;;4.27;2.20;;;7.50;99.90;;;;;;5032571;28;20249;-88
2022/04/02 12:10:31;;;;;;;2.53;1.63;;;7.60;99.90;;;;;;5031909;28;20205;-89
2022/04/02 12:13:03;;;;;;;3.00;1.53;;;7.50;99.90;;;;;;5030708;28;20198;-87
2022/04/02 12:15:30;;;;;;;5.63;2.23;;;7.50;99.90;;;;;;5047737;28;20635;-87
2022/04/02 12:18:02;;;;;;;1.80;1.70;;;7.50;99.90;;;;;;5032664;28;20213;-88
2022/04/02 12:20:36;;;;;;;3.00;1.80;;;7.70;99.90;;;;;;5032537;28;20209;-88
2022/04/02 12:23:12;;;;;;;3.03;1.80;;;7.70;99.90;;;;;;5044638;28;20249;-89
2022/04/02 12:25:46;;;;;;;2.90;1.70;;;7.90;99.90;;;;;;5036260;28;20212;-88
2022/04/02 12:28:20;;;;;;;3.00;1.90;;;8.00;99.90;;;;;;5033323;28;20209;-88
2022/04/02 12:30:49;;;;;;;2.90;1.90;;;8.20;99.90;;;;;;5032038;28;20697;-89
2022/04/02 12:33:24;;;;;;;4.53;2.03;;;8.30;99.90;;;;;;5038068;28;20202;-89
2022/04/02 12:36:08;;;;;;;3.83;1.67;;;8.40;99.90;;;;;;5033211;28;20252;-88
2022/04/02 12:38:37;;;;;;;1.97;1.50;;;8.50;99.90;;;;;;5073205;28;20282;-85
2022/04/02 12:41:20;;;;;;;5.43;2.03;;;8.60;99.90;;;;;;5060302;28;20588;-87
2022/04/02 12:43:49;;;;;;;2.60;1.90;;;8.70;99.90;;;;;;5075089;28;20188;-87
2022/04/02 12:46:25;;;;;;;2.63;2.03;;;8.80;99.90;;;;;;5076067;28;20208;-89
2022/04/02 12:48:54;;;;;;;6.70;2.10;;;8.80;99.90;;;;;;5073742;28;20204;-84
2022/04/02 12:51:23;;;;;;;3.30;1.97;;;8.90;99.90;;;;;;5067769;28;20216;-83
2022/04/02 12:54:01;;;;;;;3.93;2.20;;;8.80;99.90;;;;;;5071806;28;20296;-89
2022/04/02 12:56:32;;;;;;;2.87;1.90;;;8.80;99.90;;;;;;5073201;28;20276;-88
2022/04/02 12:59:19;;;;;;;2.97;1.90;;;9.00;99.90;;;;;;5056773;28;20598;-86
2022/04/02 13:01:48;;;;;;;3.13;1.90;;;9.20;99.90;;;;;;5064641;28;20226;-87
2022/04/02 13:04:24;;;;;;;2.67;1.73;;;9.40;99.90;;;;;;5081097;28;20944;-89
2022/04/02 13:06:56;;;;;;;1.70;1.53;;;9.50;99.90;;;;;;5054126;28;20212;-88
2022/04/02 13:09:33;;;;;;;2.67;2.00;;;9.60;99.90;;;;;;5054859;28;20578;-89
2022/04/02 13:12:02;;;;;;;3.50;1.90;;;9.80;99.90;;;;;;5052710;28;20207;-90
2022/04/02 13:14:33;;;;;;;4.13;2.10;;;10.00;99.90;;;;;;5064198;28;20212;-86
2022/04/02 13:17:18;;;;;;;4.77;1.90;;;10.00;99.90;;;;;;5052730;28;20356;-88
2022/04/02 13:22:39;;;;;;;4.30;2.00;;;9.20;99.90;;;;;;5066665;28;20216;-88
2022/04/02 13:25:16;;;;;;;3.60;1.73;;;8.80;99.90;;;;;;5062966;28;20284;-87
2022/04/02 13:28:06;;;;;;;2.97;2.10;;;8.60;99.90;;;;;;5046681;28;20201;-87
2022/04/02 13:30:47;;;;;;;2.93;1.83;;;8.30;99.90;;;;;;5047149;28;20660;-87
2022/04/02 13:33:40;;;;;;;3.20;2.00;;;8.20;99.90;;;;;;5051075;28;20217;-87
2022/04/02 13:36:34;;;;;;;2.77;2.10;;;8.00;99.90;;;;;;5065699;28;20628;-89
2022/04/02 13:39:08;;;;;;;3.03;1.83;;;7.90;99.90;;;;;;5047871;28;20299;-90
2022/04/02 13:41:38;;;;;;;1.90;1.70;;;7.80;99.90;;;;;;5052666;28;20212;-88
2022/04/02 13:44:23;;;;;;;3.47;1.70;;;7.70;99.90;;;;;;5052009;28;20207;-87
2022/04/02 13:46:55;;;;;;;4.63;2.23;;;7.70;99.90;;;;;;5064414;28;20581;-88
2022/04/02 13:49:39;;;;;;;3.47;1.90;;;7.70;99.90;;;;;;5069653;28;20265;-89
2022/04/02 13:52:09;;;;;;;4.40;1.83;;;7.80;99.90;;;;;;5064411;28;20239;-89
2022/04/02 13:54:51;;;;;;;2.47;1.50;;;7.70;99.90;;;;;;5070564;28;20215;-87
2022/04/02 13:57:20;;;;;;;2.80;1.80;;;7.80;99.90;;;;;;5054851;28;20231;-88
2022/04/02 13:59:59;;;;;;;1.37;1.27;;;8.00;99.90;;;;;;5055180;28;20201;-87
2022/04/02 14:02:34;;;;;;;2.23;1.53;;;8.10;99.90;;;;;;5058859;28;20196;-86
2022/04/02 14:05:22;;;;;;;3.30;1.80;;;8.20;99.90;;;;;;5061676;28;20189;-87
2022/04/02 14:07:59;;;;;;;3.43;1.70;;;8.20;99.90;;;;;;5044232;28;20254;-89
2022/04/02 14:10:35;;;;;;;3.30;1.60;;;8.20;99.90;;;;;;5068071;28;20261;-86
2022/04/02 14:13:27;;;;;;;2.23;1.73;;;8.10;99.90;;;;;;5068856;28;20303;-88
2022/04/02 14:15:58;;;;;;;1.67;1.57;;;7.90;99.90;;;;;;5071567;28;20219;-86
2022/04/02 14:18:33;;;;;;;3.23;2.00;;;7.80;99.90;;;;;;5055321;28;20210;-86
2022/04/02 14:21:17;;;;;;;4.90;1.80;;;7.70;99.90;;;;;;5049811;28;20288;-86
2022/04/02 14:24:14;;;;;;;6.00;1.80;;;7.70;99.90;;;;;;5070282;28;20272;-88
2022/04/02 14:26:59;;;;;;;3.23;1.93;;;7.70;99.90;;;;;;5072238;28;20213;-87
2022/04/02 14:29:47;;;;;;;4.33;1.90;;;7.80;99.90;;;;;;5071935;28;20203;-88
2022/04/02 14:32:33;;;;;;;2.87;2.23;;;7.90;99.90;;;;;;5068229;28;20298;-89
2022/04/02 14:35:22;;;;;;;2.67;2.00;;;8.10;99.90;;;;;;5057669;28;20215;-89
2022/04/02 14:38:01;;;;;;;3.80;1.90;;;8.50;99.90;;;;;;5071484;28;20225;-84
2022/04/02 14:40:40;;;;;;;4.90;2.10;;;8.70;99.90;;;;;;5074558;28;20204;-87
2022/04/02 14:43:53;;;;;;;5.77;2.17;;;8.80;99.90;;;;;;5049316;28;20635;-88
2022/04/02 14:46:28;;;;;;;2.47;1.80;;;8.80;99.90;;;;;;5009435;28;20651;-87
2022/04/02 14:49:27;;;;;;;7.50;1.93;;;8.70;99.90;;;;;;5058752;28;20298;-87
2022/04/02 14:52:06;;;;;;;2.77;2.00;;;8.40;99.90;;;;;;5052903;28;20216;-87
2022/04/02 14:55:01;;;;;;;4.73;1.70;;;8.20;99.90;;;;;;5055502;28;20212;-90
2022/04/02 14:58:06;;;;;;;2.97;1.80;;;7.90;99.90;;;;;;5073982;28;20729;-86
2022/04/02 15:00:54;;;;;;;3.63;1.93;;;7.80;99.90;;;;;;5075906;28;20214;-88
2022/04/02 15:03:55;;;;;;;2.13;1.80;;;7.70;99.90;;;;;;5046812;28;20204;-89
2022/04/02 15:06:54;;;;;;;3.40;2.10;;;7.70;99.90;;;;;;5052202;28;20247;-91
2022/04/02 15:10:01;;;;;;;3.13;1.87;;;7.60;99.90;;;;;;5069838;28;20199;-88
2022/04/02 15:12:29;;;;;;;5.00;1.93;;;7.60;99.90;;;;;;5046080;28;20214;-87